Terminal Aerodrome Forecast
Issued by NWS Sterling, VA

Current Version | Previous Version | Text Only | Print | Product List | Glossary Off
Versions: 1 2 3 4 5 6 7 8 9 10 11 12 13 14 15 16 17 18 19 20 21 22 23

000
FTUS41 KLWX 231700
TAFDCA
TAF
KDCA 231735Z 2318/2418 19006KT P6SM BKN110
     FM240100 15006KT 5SM -RA OVC015
     FM240200 14006KT 5SM -RA OVC008
     FM240300 13008KT 3SM RA OVC008 WS020/16035KT
     FM240500 15013KT 2SM RA OVC008 WS020/16045KT
     FM240600 15015KT 1SM RA OVC008
     FM241100 19011KT P6SM OVC008=

USA.gov is the U.S. government's official web portal to all federal, state and local government web resources and services.